sensor_id;sensor_type;location;lat;lon;timestamp;P1;durP1;ratioP1;P2;durP2;ratioP2
11486;SDS011;10510;47.942;9.442;2023-12-29T00:00:53;7.10;;;3.97;;
11486;SDS011;10510;47.942;9.442;2023-12-29T00:02:53;7.22;;;4.40;;
11486;SDS011;10510;47.942;9.442;2023-12-29T00:04:54;7.18;;;4.57;;
11486;SDS011;10510;47.942;9.442;2023-12-29T00:06:54;9.32;;;4.10;;
11486;SDS011;10510;47.942;9.442;2023-12-29T00:08:55;8.18;;;4.43;;
11486;SDS011;10510;47.942;9.442;2023-12-29T00:10:55;9.50;;;4.75;;
11486;SDS011;10510;47.942;9.442;2023-12-29T00:12:55;10.57;;;4.80;;
11486;SDS011;10510;47.942;9.442;2023-12-29T00:14:55;10.20;;;4.78;;
11486;SDS011;10510;47.942;9.442;2023-12-29T00:16:56;9.98;;;4.68;;
11486;SDS011;10510;47.942;9.442;2023-12-29T00:18:57;12.13;;;5.15;;
11486;SDS011;10510;47.942;9.442;2023-12-29T00:20:57;11.70;;;5.38;;
11486;SDS011;10510;47.942;9.442;2023-12-29T00:22:57;10.35;;;4.78;;
11486;SDS011;10510;47.942;9.442;2023-12-29T00:24:58;9.48;;;4.72;;
11486;SDS011;10510;47.942;9.442;2023-12-29T00:26:58;8.88;;;4.78;;
11486;SDS011;10510;47.942;9.442;2023-12-29T00:28:59;7.25;;;4.25;;
11486;SDS011;10510;47.942;9.442;2023-12-29T00:31:00;8.43;;;4.70;;
11486;SDS011;10510;47.942;9.442;2023-12-29T00:33:00;8.35;;;4.68;;
11486;SDS011;10510;47.942;9.442;2023-12-29T00:35:00;8.48;;;4.50;;
11486;SDS011;10510;47.942;9.442;2023-12-29T00:37:00;9.07;;;4.53;;
11486;SDS011;10510;47.942;9.442;2023-12-29T00:39:01;7.72;;;4.70;;
11486;SDS011;10510;47.942;9.442;2023-12-29T00:41:01;8.00;;;4.93;;
11486;SDS011;10510;47.942;9.442;2023-12-29T00:43:01;10.48;;;4.30;;
11486;SDS011;10510;47.942;9.442;2023-12-29T00:45:02;7.18;;;4.20;;
11486;SDS011;10510;47.942;9.442;2023-12-29T00:47:03;9.60;;;4.43;;
11486;SDS011;10510;47.942;9.442;2023-12-29T00:49:03;9.57;;;4.30;;
11486;SDS011;10510;47.942;9.442;2023-12-29T00:51:03;8.48;;;4.43;;
11486;SDS011;10510;47.942;9.442;2023-12-29T00:53:04;7.70;;;4.40;;
11486;SDS011;10510;47.942;9.442;2023-12-29T00:55:04;6.22;;;3.90;;
11486;SDS011;10510;47.942;9.442;2023-12-29T00:57:05;10.07;;;5.40;;
11486;SDS011;10510;47.942;9.442;2023-12-29T00:59:05;11.20;;;5.63;;
11486;SDS011;10510;47.942;9.442;2023-12-29T01:01:06;12.07;;;5.32;;
11486;SDS011;10510;47.942;9.442;2023-12-29T01:03:11;9.10;;;5.07;;
11486;SDS011;10510;47.942;9.442;2023-12-29T01:05:15;8.25;;;4.40;;
11486;SDS011;10510;47.942;9.442;2023-12-29T01:07:17;8.55;;;4.10;;
11486;SDS011;10510;47.942;9.442;2023-12-29T01:09:17;10.38;;;5.13;;
11486;SDS011;10510;47.942;9.442;2023-12-29T01:11:17;9.30;;;4.60;;
11486;SDS011;10510;47.942;9.442;2023-12-29T01:13:18;10.88;;;5.68;;
11486;SDS011;10510;47.942;9.442;2023-12-29T01:15:18;9.88;;;5.93;;
11486;SDS011;10510;47.942;9.442;2023-12-29T01:17:18;9.07;;;5.07;;
11486;SDS011;10510;47.942;9.442;2023-12-29T01:19:18;7.03;;;4.35;;
11486;SDS011;10510;47.942;9.442;2023-12-29T01:21:19;10.48;;;5.03;;
11486;SDS011;10510;47.942;9.442;2023-12-29T01:23:19;9.55;;;4.50;;
11486;SDS011;10510;47.942;9.442;2023-12-29T01:25:19;9.40;;;5.60;;
11486;SDS011;10510;47.942;9.442;2023-12-29T01:27:20;9.27;;;4.68;;
11486;SDS011;10510;47.942;9.442;2023-12-29T01:29:20;8.10;;;4.57;;
11486;SDS011;10510;47.942;9.442;2023-12-29T01:31:20;14.27;;;5.00;;
11486;SDS011;10510;47.942;9.442;2023-12-29T01:33:20;9.35;;;4.85;;
11486;SDS011;10510;47.942;9.442;2023-12-29T01:35:21;9.43;;;4.90;;
11486;SDS011;10510;47.942;9.442;2023-12-29T01:37:21;13.82;;;4.85;;
11486;SDS011;10510;47.942;9.442;2023-12-29T01:39:22;10.88;;;5.22;;
11486;SDS011;10510;47.942;9.442;2023-12-29T01:41:22;8.75;;;5.57;;
11486;SDS011;10510;47.942;9.442;2023-12-29T01:43:23;9.38;;;4.97;;
11486;SDS011;10510;47.942;9.442;2023-12-29T01:45:23;9.30;;;4.85;;
11486;SDS011;10510;47.942;9.442;2023-12-29T01:47:26;9.02;;;4.53;;
11486;SDS011;10510;47.942;9.442;2023-12-29T01:49:26;7.07;;;3.58;;
11486;SDS011;10510;47.942;9.442;2023-12-29T01:51:27;8.18;;;4.78;;
11486;SDS011;10510;47.942;9.442;2023-12-29T01:53:29;8.80;;;4.90;;
11486;SDS011;10510;47.942;9.442;2023-12-29T01:55:29;7.68;;;4.68;;
11486;SDS011;10510;47.942;9.442;2023-12-29T01:57:30;9.73;;;4.28;;
11486;SDS011;10510;47.942;9.442;2023-12-29T01:59:30;7.70;;;4.60;;
11486;SDS011;10510;47.942;9.442;2023-12-29T02:01:31;8.88;;;4.97;;
11486;SDS011;10510;47.942;9.442;2023-12-29T02:03:32;9.35;;;4.97;;
11486;SDS011;10510;47.942;9.442;2023-12-29T02:05:33;10.30;;;4.88;;
11486;SDS011;10510;47.942;9.442;2023-12-29T02:07:34;8.48;;;4.70;;
11486;SDS011;10510;47.942;9.442;2023-12-29T02:09:34;10.07;;;5.05;;
11486;SDS011;10510;47.942;9.442;2023-12-29T02:11:35;8.70;;;4.70;;
11486;SDS011;10510;47.942;9.442;2023-12-29T02:13:35;7.88;;;4.90;;
11486;SDS011;10510;47.942;9.442;2023-12-29T02:15:35;8.27;;;4.80;;
11486;SDS011;10510;47.942;9.442;2023-12-29T02:17:38;6.68;;;4.00;;
11486;SDS011;10510;47.942;9.442;2023-12-29T02:19:42;8.25;;;4.68;;
11486;SDS011;10510;47.942;9.442;2023-12-29T02:21:44;8.18;;;4.43;;
11486;SDS011;10510;47.942;9.442;2023-12-29T02:23:44;8.95;;;4.93;;
11486;SDS011;10510;47.942;9.442;2023-12-29T02:25:45;9.25;;;5.65;;
11486;SDS011;10510;47.942;9.442;2023-12-29T02:30:10;9.25;;;5.15;;
11486;SDS011;10510;47.942;9.442;2023-12-29T02:32:22;10.02;;;4.50;;
11486;SDS011;10510;47.942;9.442;2023-12-29T02:34:23;10.93;;;5.88;;
11486;SDS011;10510;47.942;9.442;2023-12-29T02:36:25;8.23;;;4.63;;
11486;SDS011;10510;47.942;9.442;2023-12-29T02:38:25;9.50;;;4.60;;
11486;SDS011;10510;47.942;9.442;2023-12-29T02:40:28;10.98;;;5.10;;
11486;SDS011;10510;47.942;9.442;2023-12-29T02:42:28;8.10;;;4.78;;
11486;SDS011;10510;47.942;9.442;2023-12-29T02:44:28;8.57;;;5.10;;
11486;SDS011;10510;47.942;9.442;2023-12-29T02:46:28;10.60;;;4.70;;
11486;SDS011;10510;47.942;9.442;2023-12-29T02:48:29;9.93;;;4.90;;
11486;SDS011;10510;47.942;9.442;2023-12-29T02:50:29;9.77;;;4.50;;
11486;SDS011;10510;47.942;9.442;2023-12-29T02:52:29;10.98;;;5.05;;
11486;SDS011;10510;47.942;9.442;2023-12-29T02:54:30;8.07;;;4.55;;
11486;SDS011;10510;47.942;9.442;2023-12-29T02:56:30;11.02;;;4.68;;
11486;SDS011;10510;47.942;9.442;2023-12-29T02:58:30;10.45;;;5.32;;
11486;SDS011;10510;47.942;9.442;2023-12-29T03:00:30;10.63;;;4.60;;
11486;SDS011;10510;47.942;9.442;2023-12-29T03:02:31;10.48;;;5.70;;
11486;SDS011;10510;47.942;9.442;2023-12-29T03:04:31;9.77;;;4.72;;
11486;SDS011;10510;47.942;9.442;2023-12-29T03:06:31;10.00;;;4.40;;
11486;SDS011;10510;47.942;9.442;2023-12-29T03:08:32;9.23;;;4.80;;
11486;SDS011;10510;47.942;9.442;2023-12-29T03:10:32;7.65;;;4.10;;
11486;SDS011;10510;47.942;9.442;2023-12-29T03:12:32;6.55;;;3.97;;
11486;SDS011;10510;47.942;9.442;2023-12-29T03:14:33;8.07;;;4.05;;
11486;SDS011;10510;47.942;9.442;2023-12-29T03:16:33;10.20;;;4.60;;
11486;SDS011;10510;47.942;9.442;2023-12-29T03:18:33;8.20;;;4.07;;
11486;SDS011;10510;47.942;9.442;2023-12-29T03:20:38;8.32;;;4.20;;
11486;SDS011;10510;47.942;9.442;2023-12-29T03:22:38;7.93;;;4.43;;
11486;SDS011;10510;47.942;9.442;2023-12-29T03:24:41;6.72;;;4.03;;
11486;SDS011;10510;47.942;9.442;2023-12-29T03:26:44;9.48;;;4.20;;
11486;SDS011;10510;47.942;9.442;2023-12-29T03:28:45;5.35;;;3.60;;
11486;SDS011;10510;47.942;9.442;2023-12-29T03:30:45;9.60;;;3.60;;
11486;SDS011;10510;47.942;9.442;2023-12-29T03:32:45;7.03;;;4.03;;
11486;SDS011;10510;47.942;9.442;2023-12-29T03:34:45;6.50;;;3.58;;
11486;SDS011;10510;47.942;9.442;2023-12-29T03:36:46;7.85;;;3.80;;
11486;SDS011;10510;47.942;9.442;2023-12-29T03:38:46;6.97;;;3.55;;
11486;SDS011;10510;47.942;9.442;2023-12-29T03:40:46;6.88;;;3.92;;
11486;SDS011;10510;47.942;9.442;2023-12-29T03:42:46;7.00;;;4.20;;
11486;SDS011;10510;47.942;9.442;2023-12-29T03:44:47;6.82;;;4.50;;
11486;SDS011;10510;47.942;9.442;2023-12-29T03:46:47;8.02;;;3.63;;
11486;SDS011;10510;47.942;9.442;2023-12-29T03:48:49;6.93;;;4.07;;
11486;SDS011;10510;47.942;9.442;2023-12-29T03:50:49;6.57;;;3.63;;
11486;SDS011;10510;47.942;9.442;2023-12-29T03:52:49;6.88;;;3.25;;
11486;SDS011;10510;47.942;9.442;2023-12-29T03:54:50;6.00;;;3.30;;
11486;SDS011;10510;47.942;9.442;2023-12-29T03:56:50;7.38;;;4.07;;
11486;SDS011;10510;47.942;9.442;2023-12-29T03:58:50;7.35;;;4.38;;
11486;SDS011;10510;47.942;9.442;2023-12-29T04:00:50;8.55;;;4.43;;
11486;SDS011;10510;47.942;9.442;2023-12-29T04:02:51;9.48;;;4.45;;
11486;SDS011;10510;47.942;9.442;2023-12-29T04:04:51;8.70;;;4.75;;
11486;SDS011;10510;47.942;9.442;2023-12-29T04:06:51;8.75;;;5.15;;
11486;SDS011;10510;47.942;9.442;2023-12-29T04:08:51;8.07;;;4.20;;
11486;SDS011;10510;47.942;9.442;2023-12-29T04:10:52;7.45;;;4.30;;
11486;SDS011;10510;47.942;9.442;2023-12-29T04:12:52;6.93;;;4.20;;
11486;SDS011;10510;47.942;9.442;2023-12-29T04:14:52;9.00;;;4.20;;
11486;SDS011;10510;47.942;9.442;2023-12-29T04:16:52;7.95;;;3.58;;
11486;SDS011;10510;47.942;9.442;2023-12-29T04:18:53;6.80;;;3.95;;
11486;SDS011;10510;47.942;9.442;2023-12-29T04:20:53;13.10;;;4.00;;
11486;SDS011;10510;47.942;9.442;2023-12-29T04:22:54;11.80;;;4.13;;
11486;SDS011;10510;47.942;9.442;2023-12-29T04:24:55;7.15;;;4.22;;
11486;SDS011;10510;47.942;9.442;2023-12-29T04:26:55;9.95;;;4.47;;
11486;SDS011;10510;47.942;9.442;2023-12-29T04:28:55;9.20;;;4.10;;
11486;SDS011;10510;47.942;9.442;2023-12-29T04:30:55;9.27;;;4.60;;
11486;SDS011;10510;47.942;9.442;2023-12-29T04:32:56;10.18;;;4.18;;
11486;SDS011;10510;47.942;9.442;2023-12-29T04:34:56;8.98;;;4.03;;
11486;SDS011;10510;47.942;9.442;2023-12-29T04:36:56;7.50;;;4.10;;
11486;SDS011;10510;47.942;9.442;2023-12-29T04:38:56;7.05;;;4.00;;
11486;SDS011;10510;47.942;9.442;2023-12-29T04:40:57;9.35;;;4.05;;
11486;SDS011;10510;47.942;9.442;2023-12-29T04:42:57;7.22;;;3.95;;
11486;SDS011;10510;47.942;9.442;2023-12-29T04:44:57;9.23;;;3.92;;
11486;SDS011;10510;47.942;9.442;2023-12-29T04:46:58;7.45;;;3.65;;
11486;SDS011;10510;47.942;9.442;2023-12-29T04:48:58;7.13;;;3.95;;
11486;SDS011;10510;47.942;9.442;2023-12-29T04:50:59;7.78;;;4.05;;
11486;SDS011;10510;47.942;9.442;2023-12-29T04:52:59;11.30;;;3.80;;
11486;SDS011;10510;47.942;9.442;2023-12-29T04:54:59;7.78;;;3.92;;
11486;SDS011;10510;47.942;9.442;2023-12-29T04:57:00;5.13;;;3.58;;
11486;SDS011;10510;47.942;9.442;2023-12-29T04:59:00;8.60;;;4.60;;
11486;SDS011;10510;47.942;9.442;2023-12-29T05:01:00;6.60;;;3.72;;
11486;SDS011;10510;47.942;9.442;2023-12-29T05:03:00;7.90;;;3.83;;
11486;SDS011;10510;47.942;9.442;2023-12-29T05:05:01;6.47;;;3.42;;
11486;SDS011;10510;47.942;9.442;2023-12-29T05:07:01;6.53;;;3.75;;
11486;SDS011;10510;47.942;9.442;2023-12-29T05:09:01;5.00;;;3.55;;
11486;SDS011;10510;47.942;9.442;2023-12-29T05:11:02;7.72;;;4.13;;
11486;SDS011;10510;47.942;9.442;2023-12-29T05:13:02;9.13;;;3.90;;
11486;SDS011;10510;47.942;9.442;2023-12-29T05:15:03;6.07;;;4.25;;
11486;SDS011;10510;47.942;9.442;2023-12-29T05:17:04;8.00;;;4.00;;
11486;SDS011;10510;47.942;9.442;2023-12-29T05:19:04;8.63;;;4.07;;
11486;SDS011;10510;47.942;9.442;2023-12-29T05:21:05;7.28;;;4.25;;
11486;SDS011;10510;47.942;9.442;2023-12-29T05:23:05;7.60;;;4.10;;
11486;SDS011;10510;47.942;9.442;2023-12-29T05:25:05;7.97;;;4.88;;
11486;SDS011;10510;47.942;9.442;2023-12-29T05:27:06;8.00;;;3.80;;
11486;SDS011;10510;47.942;9.442;2023-12-29T05:29:06;7.63;;;4.38;;
11486;SDS011;10510;47.942;9.442;2023-12-29T05:31:07;7.88;;;3.90;;
11486;SDS011;10510;47.942;9.442;2023-12-29T05:33:07;6.63;;;4.03;;
11486;SDS011;10510;47.942;9.442;2023-12-29T05:35:07;9.23;;;4.15;;
11486;SDS011;10510;47.942;9.442;2023-12-29T05:37:08;6.68;;;3.55;;
11486;SDS011;10510;47.942;9.442;2023-12-29T05:39:08;7.00;;;4.13;;
11486;SDS011;10510;47.942;9.442;2023-12-29T05:41:08;8.25;;;4.07;;
11486;SDS011;10510;47.942;9.442;2023-12-29T05:43:14;5.57;;;3.67;;
11486;SDS011;10510;47.942;9.442;2023-12-29T05:45:15;7.20;;;4.40;;
11486;SDS011;10510;47.942;9.442;2023-12-29T05:47:17;5.70;;;3.45;;
11486;SDS011;10510;47.942;9.442;2023-12-29T05:49:17;7.10;;;3.88;;
11486;SDS011;10510;47.942;9.442;2023-12-29T05:51:18;7.55;;;4.03;;
11486;SDS011;10510;47.942;9.442;2023-12-29T05:53:18;9.63;;;4.13;;
11486;SDS011;10510;47.942;9.442;2023-12-29T05:55:18;8.23;;;3.80;;
11486;SDS011;10510;47.942;9.442;2023-12-29T05:57:19;6.85;;;3.55;;
11486;SDS011;10510;47.942;9.442;2023-12-29T05:59:19;7.28;;;4.45;;
11486;SDS011;10510;47.942;9.442;2023-12-29T06:01:19;7.60;;;4.00;;
11486;SDS011;10510;47.942;9.442;2023-12-29T06:03:20;11.77;;;4.50;;
11486;SDS011;10510;47.942;9.442;2023-12-29T06:05:20;7.85;;;4.18;;
11486;SDS011;10510;47.942;9.442;2023-12-29T06:07:20;8.25;;;4.38;;
11486;SDS011;10510;47.942;9.442;2023-12-29T06:09:20;8.07;;;4.03;;
11486;SDS011;10510;47.942;9.442;2023-12-29T06:11:21;7.32;;;3.95;;
11486;SDS011;10510;47.942;9.442;2023-12-29T06:13:21;7.35;;;4.00;;
11486;SDS011;10510;47.942;9.442;2023-12-29T06:15:22;11.13;;;4.47;;
11486;SDS011;10510;47.942;9.442;2023-12-29T06:17:22;9.45;;;3.67;;
11486;SDS011;10510;47.942;9.442;2023-12-29T06:19:22;7.13;;;3.50;;
11486;SDS011;10510;47.942;9.442;2023-12-29T06:21:22;7.00;;;3.78;;
11486;SDS011;10510;47.942;9.442;2023-12-29T06:23:23;6.45;;;3.88;;
11486;SDS011;10510;47.942;9.442;2023-12-29T06:25:25;5.82;;;3.67;;
11486;SDS011;10510;47.942;9.442;2023-12-29T06:27:25;7.03;;;3.72;;
11486;SDS011;10510;47.942;9.442;2023-12-29T06:29:26;7.53;;;3.88;;
11486;SDS011;10510;47.942;9.442;2023-12-29T06:31:26;7.93;;;3.90;;
11486;SDS011;10510;47.942;9.442;2023-12-29T06:33:26;7.03;;;4.03;;
11486;SDS011;10510;47.942;9.442;2023-12-29T06:35:26;8.45;;;3.42;;
11486;SDS011;10510;47.942;9.442;2023-12-29T06:37:27;6.22;;;3.65;;
11486;SDS011;10510;47.942;9.442;2023-12-29T06:39:27;9.00;;;3.55;;
11486;SDS011;10510;47.942;9.442;2023-12-29T06:41:27;9.52;;;4.18;;
11486;SDS011;10510;47.942;9.442;2023-12-29T06:43:27;7.10;;;3.88;;
11486;SDS011;10510;47.942;9.442;2023-12-29T06:45:28;6.68;;;3.53;;
11486;SDS011;10510;47.942;9.442;2023-12-29T06:47:28;7.55;;;3.85;;
11486;SDS011;10510;47.942;9.442;2023-12-29T06:49:28;5.85;;;3.70;;
11486;SDS011;10510;47.942;9.442;2023-12-29T06:51:29;6.43;;;3.40;;
11486;SDS011;10510;47.942;9.442;2023-12-29T06:53:29;8.52;;;3.22;;
11486;SDS011;10510;47.942;9.442;2023-12-29T06:55:29;6.82;;;3.53;;
11486;SDS011;10510;47.942;9.442;2023-12-29T06:57:29;6.97;;;3.75;;
11486;SDS011;10510;47.942;9.442;2023-12-29T06:59:30;7.38;;;3.42;;
11486;SDS011;10510;47.942;9.442;2023-12-29T07:01:30;8.13;;;3.50;;
11486;SDS011;10510;47.942;9.442;2023-12-29T07:03:30;5.43;;;3.08;;
11486;SDS011;10510;47.942;9.442;2023-12-29T07:05:30;5.80;;;3.35;;
11486;SDS011;10510;47.942;9.442;2023-12-29T07:07:31;5.63;;;3.13;;
11486;SDS011;10510;47.942;9.442;2023-12-29T07:09:31;5.93;;;3.70;;
11486;SDS011;10510;47.942;9.442;2023-12-29T07:11:31;8.27;;;3.60;;
11486;SDS011;10510;47.942;9.442;2023-12-29T07:13:31;7.68;;;3.75;;
11486;SDS011;10510;47.942;9.442;2023-12-29T07:15:32;6.00;;;3.40;;
11486;SDS011;10510;47.942;9.442;2023-12-29T07:17:32;7.00;;;3.88;;
11486;SDS011;10510;47.942;9.442;2023-12-29T07:19:32;7.40;;;3.80;;
11486;SDS011;10510;47.942;9.442;2023-12-29T07:21:36;8.82;;;3.67;;
11486;SDS011;10510;47.942;9.442;2023-12-29T07:23:37;7.88;;;3.85;;
11486;SDS011;10510;47.942;9.442;2023-12-29T07:25:37;6.68;;;3.97;;
11486;SDS011;10510;47.942;9.442;2023-12-29T07:27:37;6.30;;;3.80;;
11486;SDS011;10510;47.942;9.442;2023-12-29T07:29:38;7.97;;;4.40;;
11486;SDS011;10510;47.942;9.442;2023-12-29T07:31:38;7.88;;;3.83;;
11486;SDS011;10510;47.942;9.442;2023-12-29T07:33:39;6.65;;;4.28;;
11486;SDS011;10510;47.942;9.442;2023-12-29T07:35:40;7.75;;;4.55;;
11486;SDS011;10510;47.942;9.442;2023-12-29T07:37:40;6.35;;;3.78;;
11486;SDS011;10510;47.942;9.442;2023-12-29T07:39:40;7.13;;;3.80;;
11486;SDS011;10510;47.942;9.442;2023-12-29T07:41:40;5.82;;;3.83;;
11486;SDS011;10510;47.942;9.442;2023-12-29T07:43:44;7.75;;;4.03;;
11486;SDS011;10510;47.942;9.442;2023-12-29T07:45:44;5.85;;;4.20;;
11486;SDS011;10510;47.942;9.442;2023-12-29T07:47:44;8.85;;;5.05;;
11486;SDS011;10510;47.942;9.442;2023-12-29T07:49:45;7.30;;;4.28;;
11486;SDS011;10510;47.942;9.442;2023-12-29T07:51:46;9.25;;;4.28;;
11486;SDS011;10510;47.942;9.442;2023-12-29T07:53:46;7.32;;;3.90;;
11486;SDS011;10510;47.942;9.442;2023-12-29T07:55:46;6.28;;;4.00;;
11486;SDS011;10510;47.942;9.442;2023-12-29T07:57:49;8.32;;;4.43;;
11486;SDS011;10510;47.942;9.442;2023-12-29T07:59:49;7.90;;;4.47;;
11486;SDS011;10510;47.942;9.442;2023-12-29T08:01:49;9.77;;;4.15;;
11486;SDS011;10510;47.942;9.442;2023-12-29T08:03:50;8.27;;;4.43;;
11486;SDS011;10510;47.942;9.442;2023-12-29T08:05:50;7.55;;;4.18;;
11486;SDS011;10510;47.942;9.442;2023-12-29T08:07:50;7.28;;;4.30;;
11486;SDS011;10510;47.942;9.442;2023-12-29T08:09:50;6.80;;;4.25;;
11486;SDS011;10510;47.942;9.442;2023-12-29T08:11:51;6.80;;;4.47;;
11486;SDS011;10510;47.942;9.442;2023-12-29T08:13:51;7.03;;;4.10;;
11486;SDS011;10510;47.942;9.442;2023-12-29T08:15:51;7.85;;;4.07;;
11486;SDS011;10510;47.942;9.442;2023-12-29T08:17:52;8.98;;;4.45;;
11486;SDS011;10510;47.942;9.442;2023-12-29T08:19:52;9.73;;;4.63;;
11486;SDS011;10510;47.942;9.442;2023-12-29T08:21:52;8.30;;;4.50;;
11486;SDS011;10510;47.942;9.442;2023-12-29T08:23:52;7.72;;;4.30;;
11486;SDS011;10510;47.942;9.442;2023-12-29T08:25:53;9.65;;;4.28;;
11486;SDS011;10510;47.942;9.442;2023-12-29T08:27:53;7.15;;;3.72;;
11486;SDS011;10510;47.942;9.442;2023-12-29T08:29:53;9.63;;;4.53;;
11486;SDS011;10510;47.942;9.442;2023-12-29T08:31:54;7.82;;;4.03;;
11486;SDS011;10510;47.942;9.442;2023-12-29T08:33:54;8.05;;;4.60;;
11486;SDS011;10510;47.942;9.442;2023-12-29T08:35:54;8.43;;;4.95;;
11486;SDS011;10510;47.942;9.442;2023-12-29T08:38:00;8.38;;;4.10;;
11486;SDS011;10510;47.942;9.442;2023-12-29T08:40:02;8.50;;;4.72;;
11486;SDS011;10510;47.942;9.442;2023-12-29T08:42:03;7.03;;;4.28;;
11486;SDS011;10510;47.942;9.442;2023-12-29T08:44:03;7.35;;;4.40;;
11486;SDS011;10510;47.942;9.442;2023-12-29T08:46:04;10.88;;;5.13;;
11486;SDS011;10510;47.942;9.442;2023-12-29T08:48:04;8.95;;;4.57;;
11486;SDS011;10510;47.942;9.442;2023-12-29T08:50:05;7.25;;;4.35;;
11486;SDS011;10510;47.942;9.442;2023-12-29T08:52:06;7.80;;;4.25;;
11486;SDS011;10510;47.942;9.442;2023-12-29T08:54:09;10.02;;;4.50;;
11486;SDS011;10510;47.942;9.442;2023-12-29T08:56:10;8.20;;;4.70;;
11486;SDS011;10510;47.942;9.442;2023-12-29T08:58:12;5.93;;;3.70;;
11486;SDS011;10510;47.942;9.442;2023-12-29T09:00:12;7.45;;;4.28;;
11486;SDS011;10510;47.942;9.442;2023-12-29T09:02:13;8.60;;;4.53;;
11486;SDS011;10510;47.942;9.442;2023-12-29T09:04:13;7.10;;;4.22;;
11486;SDS011;10510;47.942;9.442;2023-12-29T09:06:13;6.70;;;3.90;;
11486;SDS011;10510;47.942;9.442;2023-12-29T09:08:14;6.65;;;3.90;;
11486;SDS011;10510;47.942;9.442;2023-12-29T09:10:14;9.80;;;4.30;;
11486;SDS011;10510;47.942;9.442;2023-12-29T09:12:17;8.15;;;4.60;;
11486;SDS011;10510;47.942;9.442;2023-12-29T09:14:21;6.47;;;3.53;;
11486;SDS011;10510;47.942;9.442;2023-12-29T09:16:21;5.97;;;4.10;;
11486;SDS011;10510;47.942;9.442;2023-12-29T09:18:21;11.45;;;6.13;;
11486;SDS011;10510;47.942;9.442;2023-12-29T09:20:21;12.00;;;5.88;;
11486;SDS011;10510;47.942;9.442;2023-12-29T09:22:25;8.23;;;4.72;;
11486;SDS011;10510;47.942;9.442;2023-12-29T09:24:25;8.25;;;3.88;;
11486;SDS011;10510;47.942;9.442;2023-12-29T09:26:26;6.43;;;4.03;;
11486;SDS011;10510;47.942;9.442;2023-12-29T09:28:26;6.68;;;4.22;;
11486;SDS011;10510;47.942;9.442;2023-12-29T09:30:26;8.68;;;5.22;;
11486;SDS011;10510;47.942;9.442;2023-12-29T09:32:27;8.57;;;4.35;;
11486;SDS011;10510;47.942;9.442;2023-12-29T09:34:27;8.18;;;4.50;;
11486;SDS011;10510;47.942;9.442;2023-12-29T09:36:27;7.82;;;4.60;;
11486;SDS011;10510;47.942;9.442;2023-12-29T09:38:28;9.20;;;4.15;;
11486;SDS011;10510;47.942;9.442;2023-12-29T09:40:28;6.90;;;3.58;;
11486;SDS011;10510;47.942;9.442;2023-12-29T09:42:28;9.25;;;4.50;;
11486;SDS011;10510;47.942;9.442;2023-12-29T09:44:31;8.23;;;4.07;;
11486;SDS011;10510;47.942;9.442;2023-12-29T09:46:31;10.70;;;4.78;;
11486;SDS011;10510;47.942;9.442;2023-12-29T09:48:32;9.98;;;4.63;;
11486;SDS011;10510;47.942;9.442;2023-12-29T09:50:36;10.25;;;4.25;;
11486;SDS011;10510;47.942;9.442;2023-12-29T09:52:37;7.88;;;4.60;;
11486;SDS011;10510;47.942;9.442;2023-12-29T09:54:39;5.90;;;3.60;;
11486;SDS011;10510;47.942;9.442;2023-12-29T09:56:40;7.20;;;4.20;;
11486;SDS011;10510;47.942;9.442;2023-12-29T09:58:41;9.88;;;4.80;;
11486;SDS011;10510;47.942;9.442;2023-12-29T10:00:42;23.30;;;9.40;;
11486;SDS011;10510;47.942;9.442;2023-12-29T10:02:42;37.80;;;12.32;;
11486;SDS011;10510;47.942;9.442;2023-12-29T10:04:44;7.60;;;4.65;;
11486;SDS011;10510;47.942;9.442;2023-12-29T10:06:44;8.52;;;3.88;;
11486;SDS011;10510;47.942;9.442;2023-12-29T10:08:47;6.60;;;3.50;;
11486;SDS011;10510;47.942;9.442;2023-12-29T10:10:49;6.40;;;4.10;;
11486;SDS011;10510;47.942;9.442;2023-12-29T10:12:51;5.70;;;3.53;;
11486;SDS011;10510;47.942;9.442;2023-12-29T10:16:59;9.27;;;3.47;;
11486;SDS011;10510;47.942;9.442;2023-12-29T10:19:39;6.65;;;3.97;;
11486;SDS011;10510;47.942;9.442;2023-12-29T10:22:03;8.82;;;3.67;;
11486;SDS011;10510;47.942;9.442;2023-12-29T10:26:18;5.95;;;2.92;;
11486;SDS011;10510;47.942;9.442;2023-12-29T10:28:19;5.82;;;3.33;;
11486;SDS011;10510;47.942;9.442;2023-12-29T10:30:19;4.95;;;3.22;;
11486;SDS011;10510;47.942;9.442;2023-12-29T10:32:20;7.65;;;3.60;;
11486;SDS011;10510;47.942;9.442;2023-12-29T10:34:21;5.55;;;3.60;;
11486;SDS011;10510;47.942;9.442;2023-12-29T10:36:28;6.15;;;3.55;;
11486;SDS011;10510;47.942;9.442;2023-12-29T10:38:46;6.13;;;3.60;;
11486;SDS011;10510;47.942;9.442;2023-12-29T10:40:48;6.82;;;3.38;;
11486;SDS011;10510;47.942;9.442;2023-12-29T10:42:53;4.63;;;2.83;;
11486;SDS011;10510;47.942;9.442;2023-12-29T10:45:09;4.78;;;3.50;;
11486;SDS011;10510;47.942;9.442;2023-12-29T10:47:13;5.00;;;2.72;;
11486;SDS011;10510;47.942;9.442;2023-12-29T10:49:14;6.10;;;2.80;;
11486;SDS011;10510;47.942;9.442;2023-12-29T10:51:18;5.72;;;3.05;;
11486;SDS011;10510;47.942;9.442;2023-12-29T10:53:27;5.43;;;2.40;;
11486;SDS011;10510;47.942;9.442;2023-12-29T10:55:28;4.78;;;2.95;;
11486;SDS011;10510;47.942;9.442;2023-12-29T10:57:31;5.78;;;2.88;;
11486;SDS011;10510;47.942;9.442;2023-12-29T10:59:35;4.57;;;2.70;;
11486;SDS011;10510;47.942;9.442;2023-12-29T11:01:35;3.55;;;2.30;;
11486;SDS011;10510;47.942;9.442;2023-12-29T11:03:36;4.63;;;2.50;;
11486;SDS011;10510;47.942;9.442;2023-12-29T11:05:37;3.47;;;2.20;;
11486;SDS011;10510;47.942;9.442;2023-12-29T11:07:39;7.00;;;3.40;;
11486;SDS011;10510;47.942;9.442;2023-12-29T11:09:41;3.03;;;2.38;;
11486;SDS011;10510;47.942;9.442;2023-12-29T11:11:41;4.05;;;2.70;;
11486;SDS011;10510;47.942;9.442;2023-12-29T11:13:47;5.65;;;3.22;;
11486;SDS011;10510;47.942;9.442;2023-12-29T11:15:48;4.63;;;2.22;;
11486;SDS011;10510;47.942;9.442;2023-12-29T11:17:51;3.00;;;2.13;;
11486;SDS011;10510;47.942;9.442;2023-12-29T11:19:52;4.03;;;2.30;;
11486;SDS011;10510;47.942;9.442;2023-12-29T11:21:54;4.10;;;2.60;;
11486;SDS011;10510;47.942;9.442;2023-12-29T11:23:55;6.72;;;2.55;;
11486;SDS011;10510;47.942;9.442;2023-12-29T11:25:55;4.18;;;2.28;;
11486;SDS011;10510;47.942;9.442;2023-12-29T11:27:58;3.78;;;2.40;;
11486;SDS011;10510;47.942;9.442;2023-12-29T11:30:00;5.85;;;2.92;;
11486;SDS011;10510;47.942;9.442;2023-12-29T11:32:02;4.85;;;2.70;;
11486;SDS011;10510;47.942;9.442;2023-12-29T11:34:09;3.90;;;2.28;;
11486;SDS011;10510;47.942;9.442;2023-12-29T11:36:16;4.25;;;2.63;;
11486;SDS011;10510;47.942;9.442;2023-12-29T11:40:48;4.68;;;2.35;;
11486;SDS011;10510;47.942;9.442;2023-12-29T11:42:57;2.85;;;1.77;;
11486;SDS011;10510;47.942;9.442;2023-12-29T11:47:35;3.65;;;2.05;;
11486;SDS011;10510;47.942;9.442;2023-12-29T11:49:58;5.95;;;3.08;;
11486;SDS011;10510;47.942;9.442;2023-12-29T11:52:01;4.20;;;2.10;;
11486;SDS011;10510;47.942;9.442;2023-12-29T11:54:02;4.63;;;2.28;;
11486;SDS011;10510;47.942;9.442;2023-12-29T11:56:07;4.30;;;2.25;;
11486;SDS011;10510;47.942;9.442;2023-12-29T11:58:25;5.57;;;2.10;;
11486;SDS011;10510;47.942;9.442;2023-12-29T12:00:41;3.50;;;1.90;;
11486;SDS011;10510;47.942;9.442;2023-12-29T12:02:43;3.33;;;2.13;;
11486;SDS011;10510;47.942;9.442;2023-12-29T12:04:44;2.35;;;1.83;;
11486;SDS011;10510;47.942;9.442;2023-12-29T12:06:45;3.03;;;1.90;;
11486;SDS011;10510;47.942;9.442;2023-12-29T12:08:45;3.28;;;1.83;;
11486;SDS011;10510;47.942;9.442;2023-12-29T12:10:46;2.00;;;1.80;;
11486;SDS011;10510;47.942;9.442;2023-12-29T12:12:46;2.55;;;1.70;;
11486;SDS011;10510;47.942;9.442;2023-12-29T12:14:49;2.83;;;1.63;;
11486;SDS011;10510;47.942;9.442;2023-12-29T12:16:53;3.17;;;1.88;;
11486;SDS011;10510;47.942;9.442;2023-12-29T12:18:53;3.38;;;1.83;;
11486;SDS011;10510;47.942;9.442;2023-12-29T12:20:54;3.78;;;2.15;;